createdAt,value
2019-02-16T00:01:58.018Z,8.40
2019-02-16T00:04:29.962Z,9.10
2019-02-16T00:07:01.883Z,8.90
2019-02-16T00:09:33.817Z,9.13
2019-02-16T00:12:05.868Z,8.83
2019-02-16T00:14:37.854Z,8.87
2019-02-16T00:17:09.776Z,8.57
2019-02-16T00:19:41.700Z,8.37
2019-02-16T00:22:13.636Z,8.50
2019-02-16T00:24:45.627Z,8.93
2019-02-16T00:27:17.553Z,8.57
2019-02-16T00:29:49.537Z,8.53
2019-02-16T00:32:21.464Z,8.90
2019-02-16T00:34:53.380Z,8.57
2019-02-16T00:37:25.306Z,9.67
2019-02-16T00:39:57.289Z,7.70
2019-02-16T00:42:29.239Z,8.03
2019-02-16T00:45:01.159Z,9.33
2019-02-16T00:47:33.077Z,9.27
2019-02-16T00:50:05.502Z,8.93
2019-02-16T00:52:37.427Z,9.50
2019-02-16T00:55:09.341Z,8.67
2019-02-16T00:57:41.281Z,8.77
2019-02-16T01:00:13.965Z,8.73
2019-02-16T01:02:45.895Z,8.93
2019-02-16T01:05:17.907Z,9.07
2019-02-16T01:07:49.822Z,8.73
2019-02-16T01:10:21.749Z,8.23
2019-02-16T01:12:53.668Z,8.17
2019-02-16T01:15:25.958Z,9.10
2019-02-16T01:17:57.898Z,8.50
2019-02-16T01:20:29.818Z,8.30
2019-02-16T01:23:01.759Z,9.30
2019-02-16T01:25:34.016Z,9.20
2019-02-16T01:28:05.967Z,8.33
2019-02-16T01:30:37.882Z,8.23
2019-02-16T01:33:10.042Z,9.13
2019-02-16T01:35:42.017Z,10.03
2019-02-16T01:38:13.985Z,8.80
2019-02-16T01:40:46.041Z,9.23
2019-02-16T01:43:18.108Z,9.07
2019-02-16T01:45:50.307Z,8.73
2019-02-16T01:48:22.613Z,9.17
2019-02-16T01:50:54.772Z,8.20
2019-02-16T01:53:26.848Z,9.57
2019-02-16T01:55:58.778Z,8.47
2019-02-16T01:58:31.105Z,8.57
2019-02-16T02:01:03.240Z,8.57
2019-02-16T02:06:14.000Z,8.60
2019-02-16T02:08:46.014Z,8.57
2019-02-16T02:11:17.928Z,9.10
2019-02-16T02:13:50.148Z,9.27
2019-02-16T02:16:22.095Z,9.73
2019-02-16T02:18:54.012Z,9.10
2019-02-16T02:21:25.961Z,9.53
2019-02-16T02:23:57.895Z,9.50
2019-02-16T02:26:29.819Z,9.07
2019-02-16T02:29:01.768Z,9.00
2019-02-16T02:31:33.675Z,8.60
2019-02-16T02:34:05.607Z,8.80
2019-02-16T02:36:37.574Z,8.87
2019-02-16T02:39:09.797Z,8.60
2019-02-16T02:41:41.740Z,8.40
2019-02-16T02:44:13.862Z,9.00
2019-02-16T02:46:46.298Z,9.23
2019-02-16T02:49:18.330Z,8.67
2019-02-16T02:51:52.469Z,8.00
2019-02-16T02:54:23.996Z,8.93
2019-02-16T02:56:55.924Z,8.27
2019-02-16T02:59:27.847Z,8.23
2019-02-16T03:01:59.821Z,8.37
2019-02-16T03:04:31.761Z,8.00
2019-02-16T03:07:03.693Z,9.37
2019-02-16T03:09:35.652Z,8.23
2019-02-16T03:12:07.597Z,8.20
2019-02-16T03:14:39.510Z,8.20
2019-02-16T03:17:11.467Z,7.83
2019-02-16T03:19:43.412Z,9.40
2019-02-16T03:22:15.317Z,8.37
2019-02-16T03:24:47.267Z,8.63
2019-02-16T03:27:29.070Z,8.60
2019-02-16T03:30:16.841Z,7.73
2019-02-16T03:33:14.281Z,8.77
2019-02-16T03:35:56.534Z,7.57
2019-02-16T03:38:42.292Z,7.90
2019-02-16T03:41:14.238Z,7.87
2019-02-16T03:43:46.182Z,8.20
2019-02-16T03:46:18.152Z,7.80
2019-02-16T03:48:50.054Z,7.97
2019-02-16T03:51:22.030Z,7.53
2019-02-16T03:53:53.973Z,8.57
2019-02-16T03:56:25.884Z,9.07
2019-02-16T03:58:57.925Z,8.57
2019-02-16T04:01:30.230Z,8.37
2019-02-16T04:04:02.168Z,8.60
2019-02-16T04:06:34.085Z,8.23
2019-02-16T04:09:07.394Z,8.00
2019-02-16T04:11:39.377Z,8.03
2019-02-16T04:14:11.279Z,8.03
2019-02-16T04:16:43.203Z,7.57
2019-02-16T04:19:15.159Z,8.57
2019-02-16T04:21:47.113Z,7.87
2019-02-16T04:24:19.015Z,8.97
2019-02-16T04:26:52.089Z,7.50
2019-02-16T04:29:24.009Z,7.40
2019-02-16T04:31:55.938Z,8.10
2019-02-16T04:34:27.862Z,7.90
2019-02-16T04:36:59.776Z,8.17
2019-02-16T04:39:31.754Z,6.37
2019-02-16T04:42:03.662Z,7.03
2019-02-16T04:44:35.607Z,7.30
2019-02-16T04:47:07.533Z,6.57
2019-02-16T04:49:39.450Z,7.53
2019-02-16T04:52:11.343Z,7.10
2019-02-16T04:54:43.597Z,6.50
2019-02-16T04:57:15.614Z,6.70
2019-02-16T04:59:47.553Z,6.60
2019-02-16T05:02:19.541Z,7.17
2019-02-16T05:04:51.630Z,7.10
2019-02-16T05:07:23.982Z,6.87
2019-02-16T05:09:56.325Z,6.60
2019-02-16T05:12:28.671Z,6.93
2019-02-16T05:15:00.646Z,6.60
2019-02-16T05:17:32.592Z,7.00
2019-02-16T05:20:06.017Z,6.77
2019-02-16T05:22:44.507Z,7.60
2019-02-16T05:25:11.920Z,7.40
2019-02-16T05:27:45.470Z,6.37
2019-02-16T05:30:17.894Z,6.80
2019-02-16T05:32:49.800Z,6.67
2019-02-16T05:35:21.982Z,7.27
2019-02-16T05:37:54.070Z,6.50
2019-02-16T05:40:25.986Z,6.77
2019-02-16T05:42:57.974Z,7.00
2019-02-16T05:45:29.976Z,6.67
2019-02-16T05:48:02.073Z,6.87
2019-02-16T05:50:34.354Z,6.80
2019-02-16T05:53:06.272Z,6.43
2019-02-16T05:55:38.366Z,6.50
2019-02-16T05:58:10.307Z,6.77
2019-02-16T06:00:42.200Z,6.37
2019-02-16T06:03:14.227Z,6.60
2019-02-16T06:05:46.168Z,6.37
2019-02-16T06:08:18.347Z,6.50
2019-02-16T06:10:50.297Z,6.30
2019-02-16T06:13:22.242Z,6.77
2019-02-16T06:15:54.317Z,6.67
2019-02-16T06:18:26.236Z,6.77
2019-02-16T06:20:58.707Z,6.57
2019-02-16T06:23:30.713Z,6.67
2019-02-16T06:26:02.637Z,6.97
2019-02-16T06:28:35.669Z,5.83
2019-02-16T06:31:07.729Z,6.10
2019-02-16T06:33:39.668Z,6.77
2019-02-16T06:36:13.248Z,6.80
2019-02-16T06:38:45.209Z,6.23
2019-02-16T06:41:17.244Z,6.87
2019-02-16T06:43:49.133Z,6.83
2019-02-16T06:46:21.075Z,6.67
2019-02-16T06:48:53.462Z,6.63
2019-02-16T06:51:25.412Z,6.97
2019-02-16T06:53:57.320Z,7.03
2019-02-16T06:56:30.867Z,6.23
2019-02-16T06:59:02.880Z,6.00
2019-02-16T07:01:34.807Z,6.40
2019-02-16T07:04:06.748Z,6.73
2019-02-16T07:06:38.742Z,6.33
2019-02-16T07:09:10.643Z,6.57
2019-02-16T07:11:42.674Z,6.70
2019-02-16T07:14:14.809Z,6.27
2019-02-16T07:16:57.138Z,5.90
2019-02-16T07:19:30.663Z,5.90
2019-02-16T07:22:02.582Z,6.80
2019-02-16T07:24:34.571Z,5.97
2019-02-16T07:27:06.523Z,6.50
2019-02-16T07:29:38.432Z,5.60
2019-02-16T07:32:10.721Z,6.00
2019-02-16T07:34:42.662Z,6.87
2019-02-16T07:37:14.555Z,6.70
2019-02-16T07:39:46.478Z,6.20
2019-02-16T07:42:18.418Z,7.80
2019-02-16T07:45:03.972Z,6.40
2019-02-16T07:47:37.549Z,6.90
2019-02-16T07:50:23.009Z,6.30
2019-02-16T07:52:59.734Z,6.90
2019-02-16T07:55:39.378Z,6.77
2019-02-16T07:58:12.934Z,7.00
2019-02-16T08:00:46.517Z,6.43
2019-02-16T08:03:23.540Z,6.83
2019-02-16T08:05:59.941Z,7.10
2019-02-16T08:08:42.436Z,6.17
2019-02-16T08:11:16.005Z,5.90
2019-02-16T08:13:49.585Z,6.40
2019-02-16T08:16:26.365Z,6.50
2019-02-16T08:19:00.001Z,6.63
2019-02-16T08:21:33.533Z,5.93
2019-02-16T08:24:23.136Z,6.63
2019-02-16T08:26:59.625Z,7.00
2019-02-16T08:29:33.520Z,6.60
2019-02-16T08:32:07.100Z,6.20
2019-02-16T08:34:46.459Z,6.53
2019-02-16T08:37:26.621Z,6.23
2019-02-16T08:40:03.142Z,6.57
2019-02-16T08:42:52.778Z,7.00
2019-02-16T08:45:29.629Z,6.50
2019-02-16T08:48:06.198Z,6.57
2019-02-16T08:50:52.086Z,6.57
2019-02-16T08:53:37.686Z,6.33
2019-02-16T08:56:20.156Z,6.67
2019-02-16T08:59:08.669Z,6.77
2019-02-16T09:01:54.093Z,6.07
2019-02-16T09:04:27.674Z,6.67
2019-02-16T09:07:10.295Z,6.40
2019-02-16T09:09:43.832Z,6.77
2019-02-16T09:12:17.386Z,7.03
2019-02-16T09:15:00.027Z,6.53
2019-02-16T09:17:39.769Z,5.50
2019-02-16T09:20:25.159Z,7.33
2019-02-16T09:23:04.522Z,6.73
2019-02-16T09:25:38.600Z,6.77
2019-02-16T09:28:30.401Z,6.63
2019-02-16T09:31:09.951Z,6.43
2019-02-16T09:33:59.957Z,6.23
2019-02-16T09:36:50.131Z,7.37
2019-02-16T09:39:35.776Z,7.17
2019-02-16T09:42:15.264Z,6.10
2019-02-16T09:45:00.524Z,6.73
2019-02-16T09:47:40.103Z,6.47
2019-02-16T09:50:13.660Z,6.73
2019-02-16T09:52:47.221Z,6.60
2019-02-16T09:55:33.205Z,6.77
2019-02-16T09:58:12.503Z,6.70
2019-02-16T10:00:46.342Z,6.27
2019-02-16T10:03:19.935Z,7.47
2019-02-16T10:05:56.417Z,7.03
2019-02-16T10:08:39.264Z,7.23
2019-02-16T10:11:29.491Z,7.00
2019-02-16T10:14:03.047Z,7.23
2019-02-16T10:16:39.503Z,7.60
2019-02-16T10:19:13.088Z,7.20
2019-02-16T10:21:53.058Z,7.93
2019-02-16T10:24:27.326Z,7.97
2019-02-16T10:27:03.893Z,7.90
2019-02-16T10:29:37.454Z,8.10
2019-02-16T10:32:19.056Z,8.40
2019-02-16T10:34:52.613Z,8.60
2019-02-16T10:37:28.909Z,8.30
2019-02-16T10:40:05.475Z,8.40
2019-02-16T10:42:39.094Z,8.37
2019-02-16T10:45:27.697Z,8.07
2019-02-16T10:48:04.403Z,9.30
2019-02-16T10:50:37.990Z,8.10
2019-02-16T10:53:28.166Z,8.60
2019-02-16T10:56:04.720Z,8.97
2019-02-16T10:58:44.379Z,7.33
2019-02-16T11:01:20.756Z,8.60
2019-02-16T11:04:03.309Z,8.50
2019-02-16T11:06:36.892Z,8.73
2019-02-16T11:09:16.193Z,8.87
2019-02-16T11:12:02.224Z,9.17
2019-02-16T11:14:50.791Z,8.17
2019-02-16T11:17:36.455Z,10.07
2019-02-16T11:20:10.860Z,9.17
2019-02-16T11:22:47.118Z,8.87
2019-02-16T11:25:20.667Z,9.00
2019-02-16T11:27:56.914Z,8.67
2019-02-16T11:30:39.651Z,10.27
2019-02-16T11:33:25.154Z,10.10
2019-02-16T11:36:07.072Z,9.40
2019-02-16T11:38:53.888Z,10.73
2019-02-16T11:41:42.679Z,9.10
2019-02-16T11:44:19.252Z,10.20
2019-02-16T11:47:05.338Z,10.10
2019-02-16T11:49:41.840Z,9.97
2019-02-16T11:52:24.472Z,9.60
2019-02-16T11:55:04.733Z,10.60
2019-02-16T11:57:44.325Z,9.90
2019-02-16T12:00:33.234Z,11.20
2019-02-16T12:03:13.133Z,10.47
2019-02-16T12:06:02.984Z,10.23
2019-02-16T12:08:36.563Z,10.63
2019-02-16T12:11:10.146Z,10.87
2019-02-16T12:13:52.598Z,10.10
2019-02-16T12:16:35.671Z,11.27
2019-02-16T12:19:09.334Z,10.90
2019-02-16T12:21:45.667Z,11.20
2019-02-16T12:24:19.233Z,9.70
2019-02-16T12:26:58.855Z,10.67
2019-02-16T12:29:44.656Z,11.07
2019-02-16T12:32:18.266Z,10.67
2019-02-16T12:34:57.337Z,11.07
2019-02-16T12:37:30.944Z,11.00
2019-02-16T12:40:23.281Z,11.50
2019-02-16T12:42:59.892Z,10.23
2019-02-16T12:45:50.631Z,10.97
2019-02-16T12:48:17.572Z,10.67
2019-02-16T12:51:09.613Z,10.83
2019-02-16T12:53:49.101Z,11.03
2019-02-16T12:56:31.859Z,10.03
2019-02-16T12:59:28.500Z,10.23
2019-02-16T13:02:11.053Z,10.83
2019-02-16T13:05:04.160Z,11.17
2019-02-16T13:07:43.938Z,10.73
2019-02-16T13:10:33.832Z,10.17
2019-02-16T13:13:07.418Z,10.67
2019-02-16T13:15:56.248Z,10.30
2019-02-16T13:18:29.830Z,10.80
2019-02-16T13:21:06.856Z,10.90
2019-02-16T13:23:46.364Z,10.67
2019-02-16T13:26:22.923Z,10.67
2019-02-16T13:28:56.775Z,10.63
2019-02-16T13:31:30.446Z,10.40
2019-02-16T13:34:19.271Z,10.27
2019-02-16T13:36:52.878Z,11.40
2019-02-16T13:39:29.128Z,10.40
2019-02-16T13:42:05.393Z,10.03
2019-02-16T13:44:38.997Z,12.03
2019-02-16T13:47:27.577Z,11.30
2019-02-16T13:50:01.162Z,11.03
2019-02-16T13:52:37.733Z,11.27
2019-02-16T13:55:11.306Z,10.97
2019-02-16T13:57:58.387Z,11.30
2019-02-16T14:00:41.237Z,11.27
2019-02-16T14:03:25.386Z,11.17
2019-02-16T14:05:59.073Z,11.03
2019-02-16T14:08:32.714Z,10.50
2019-02-16T14:11:06.326Z,11.73
2019-02-16T14:13:56.211Z,10.87
2019-02-16T14:16:35.756Z,11.07
2019-02-16T14:19:07.732Z,11.53
2019-02-16T14:21:39.706Z,10.80
2019-02-16T14:24:11.664Z,10.77
2019-02-16T14:26:43.999Z,11.67
2019-02-16T14:29:15.935Z,10.93
2019-02-16T14:31:47.902Z,11.07
2019-02-16T14:34:20.190Z,12.07
2019-02-16T14:36:52.131Z,10.77
2019-02-16T14:39:25.706Z,11.63
2019-02-16T14:41:57.705Z,11.63
2019-02-16T14:44:29.649Z,10.60
2019-02-16T14:47:01.610Z,11.33
2019-02-16T14:49:33.900Z,11.70
2019-02-16T14:52:06.134Z,11.53
2019-02-16T14:54:38.099Z,11.17
2019-02-16T14:57:10.046Z,10.87
2019-02-16T14:59:41.983Z,10.60
2019-02-16T15:02:13.966Z,12.10
2019-02-16T15:04:45.903Z,11.37
2019-02-16T15:07:17.920Z,12.47
2019-02-16T15:09:50.239Z,11.27
2019-02-16T15:12:22.184Z,11.50
2019-02-16T15:14:54.130Z,11.10
2019-02-16T15:17:26.136Z,12.57
2019-02-16T15:19:58.109Z,11.90
2019-02-16T15:22:30.068Z,11.00
2019-02-16T15:25:02.023Z,11.37
2019-02-16T15:27:33.959Z,11.40
2019-02-16T15:30:14.465Z,12.00
2019-02-16T15:32:46.619Z,11.70
2019-02-16T15:35:20.494Z,11.60
2019-02-16T15:37:52.213Z,11.97
2019-02-16T15:40:30.184Z,11.37
2019-02-16T15:43:02.140Z,11.73
2019-02-16T15:45:34.079Z,13.13
2019-02-16T15:48:06.016Z,13.40
2019-02-16T15:50:37.979Z,12.97
2019-02-16T15:53:09.903Z,13.10
2019-02-16T15:55:41.856Z,12.90
2019-02-16T15:58:13.815Z,13.07
2019-02-16T16:00:45.733Z,12.23
2019-02-16T16:03:17.652Z,13.20
2019-02-16T16:05:49.610Z,13.97
2019-02-16T16:08:29.113Z,12.43
2019-02-16T16:11:11.983Z,13.00
2019-02-16T16:13:51.816Z,12.60
2019-02-16T16:16:25.415Z,13.63
2019-02-16T16:19:01.490Z,12.43
2019-02-16T16:21:35.082Z,12.90
2019-02-16T16:24:24.721Z,12.77
2019-02-16T16:27:14.837Z,12.77
2019-02-16T16:29:48.544Z,13.30
2019-02-16T16:32:28.290Z,13.20
2019-02-16T16:35:07.907Z,11.87
2019-02-16T16:37:59.152Z,12.57
2019-02-16T16:40:33.278Z,13.43
2019-02-16T16:43:23.361Z,12.53
2019-02-16T16:46:13.330Z,12.30
2019-02-16T16:49:03.129Z,12.00
2019-02-16T16:51:39.682Z,13.80
2019-02-16T16:54:13.255Z,13.37
2019-02-16T16:56:52.550Z,13.13
2019-02-16T16:59:38.306Z,12.53
2019-02-16T17:02:23.941Z,13.00
2019-02-16T17:04:57.586Z,13.13
2019-02-16T17:07:40.117Z,13.50
2019-02-16T17:10:13.695Z,12.77
2019-02-16T17:12:59.335Z,13.50
2019-02-16T17:15:38.878Z,12.17
2019-02-16T17:18:12.448Z,13.50
2019-02-16T17:20:49.002Z,12.80
2019-02-16T17:23:22.942Z,12.30
2019-02-16T17:25:56.621Z,13.83
2019-02-16T17:28:30.546Z,13.97
2019-02-16T17:31:12.954Z,14.87
2019-02-16T17:33:58.935Z,13.20
2019-02-16T17:36:48.103Z,14.33
2019-02-16T17:39:21.670Z,14.77
2019-02-16T17:41:55.246Z,14.43
2019-02-16T17:44:28.895Z,13.80
2019-02-16T17:47:18.666Z,13.80
2019-02-16T17:50:01.020Z,12.67
2019-02-16T17:52:50.238Z,14.37
2019-02-16T17:55:26.506Z,13.67
2019-02-16T17:58:00.079Z,14.13
2019-02-16T18:00:36.340Z,13.30
2019-02-16T18:03:10.621Z,13.63
2019-02-16T18:06:02.581Z,14.37
2019-02-16T18:08:36.159Z,15.30
2019-02-16T18:11:25.615Z,15.77
2019-02-16T18:13:59.255Z,16.37
2019-02-16T18:16:44.979Z,17.10
2019-02-16T18:19:24.468Z,15.70
2019-02-16T18:22:03.766Z,15.40
2019-02-16T18:24:46.354Z,16.73
2019-02-16T18:27:26.173Z,15.87
2019-02-16T18:30:05.769Z,15.63
2019-02-16T18:32:55.688Z,15.83
2019-02-16T18:35:45.635Z,16.57
2019-02-16T18:38:22.120Z,16.17
2019-02-16T18:40:55.691Z,16.87
2019-02-16T18:43:35.218Z,16.47
2019-02-16T18:46:09.106Z,15.37
2019-02-16T18:48:52.033Z,16.13
2019-02-16T18:51:34.944Z,15.43
2019-02-16T18:54:14.478Z,16.20
2019-02-16T18:57:06.051Z,15.43
2019-02-16T18:59:33.401Z,15.47
2019-02-16T19:02:23.106Z,17.20
2019-02-16T19:04:56.683Z,16.27
2019-02-16T19:07:35.974Z,16.23
2019-02-16T19:10:28.524Z,16.43
2019-02-16T19:13:15.847Z,16.40
2019-02-16T19:15:49.479Z,16.23
2019-02-16T19:18:26.175Z,17.33
2019-02-16T19:21:02.652Z,16.33
2019-02-16T19:23:36.329Z,17.20
2019-02-16T19:26:09.904Z,17.90
2019-02-16T19:28:46.065Z,19.23
2019-02-16T19:31:23.453Z,19.07
2019-02-16T19:33:57.079Z,18.27
2019-02-16T19:36:30.755Z,18.50
2019-02-16T19:39:04.312Z,18.33
2019-02-16T19:41:53.727Z,18.13
2019-02-16T19:44:43.734Z,18.97
2019-02-16T19:47:33.298Z,18.83
2019-02-16T19:50:26.597Z,18.50
2019-02-16T19:53:02.836Z,20.00
2019-02-16T19:55:39.397Z,18.23
2019-02-16T19:58:25.403Z,18.70
2019-02-16T20:00:59.300Z,19.60
2019-02-16T20:03:35.783Z,17.30
2019-02-16T20:06:20.808Z,18.20
2019-02-16T20:08:57.086Z,20.93
2019-02-16T20:11:33.588Z,22.50
2019-02-16T20:14:09.877Z,19.73
2019-02-16T20:16:46.115Z,20.77
2019-02-16T20:19:32.213Z,18.40
2019-02-16T20:22:11.784Z,18.53
2019-02-16T20:24:57.405Z,20.73
2019-02-16T20:27:37.406Z,21.60
2019-02-16T20:30:09.454Z,22.43
2019-02-16T20:32:59.089Z,21.13
2019-02-16T20:35:41.612Z,22.83
2019-02-16T20:38:15.534Z,22.53
2019-02-16T20:40:49.094Z,22.50
2019-02-16T20:43:22.675Z,20.97
2019-02-16T20:45:59.143Z,19.87
2019-02-16T20:48:35.458Z,20.67
2019-02-16T20:51:14.997Z,20.67
2019-02-16T20:53:49.022Z,20.90
2019-02-16T20:56:25.218Z,20.57
2019-02-16T20:58:58.769Z,21.33
2019-02-16T21:01:41.427Z,21.00
2019-02-16T21:04:17.987Z,21.43
2019-02-16T21:07:08.541Z,21.43
2019-02-16T21:09:42.133Z,21.07
2019-02-16T21:12:27.874Z,21.33
2019-02-16T21:15:07.718Z,20.47
2019-02-16T21:17:44.322Z,20.67
2019-02-16T21:20:33.275Z,21.47
2019-02-16T21:23:12.432Z,20.90
2019-02-16T21:25:46.240Z,21.93
2019-02-16T21:28:25.325Z,23.83
2019-02-16T21:31:04.640Z,20.83
2019-02-16T21:33:41.956Z,22.37
2019-02-16T21:36:19.265Z,21.27
2019-02-16T21:39:02.762Z,20.00
2019-02-16T21:41:35.131Z,20.63
2019-02-16T21:44:13.713Z,20.27
2019-02-16T21:46:53.418Z,20.90
2019-02-16T21:49:35.989Z,20.73
2019-02-16T21:52:27.820Z,20.20
2019-02-16T21:55:01.379Z,20.07
2019-02-16T21:57:37.698Z,21.10
2019-02-16T22:00:21.689Z,21.30
2019-02-16T22:02:58.513Z,21.83
2019-02-16T22:05:50.644Z,21.40
2019-02-16T22:08:29.753Z,22.17
2019-02-16T22:11:18.931Z,22.90
2019-02-16T22:13:50.904Z,23.67
2019-02-16T22:16:22.846Z,23.27
2019-02-16T22:18:54.778Z,23.83
2019-02-16T22:21:27.451Z,24.47
2019-02-16T22:23:59.378Z,25.23
2019-02-16T22:26:31.323Z,24.13
2019-02-16T22:29:03.250Z,23.67
2019-02-16T22:31:35.186Z,25.73
2019-02-16T22:34:07.143Z,25.40
2019-02-16T22:36:39.064Z,26.63
2019-02-16T22:39:10.994Z,24.83
2019-02-16T22:41:43.007Z,24.73
2019-02-16T22:44:14.941Z,26.27
2019-02-16T22:46:46.938Z,25.20
2019-02-16T22:49:18.857Z,26.60
2019-02-16T22:51:50.808Z,23.90
2019-02-16T22:54:23.201Z,24.83
2019-02-16T22:56:55.260Z,24.93
2019-02-16T22:59:27.192Z,24.77
2019-02-16T23:01:59.201Z,24.00
2019-02-16T23:04:31.176Z,24.27
2019-02-16T23:07:03.113Z,24.37
2019-02-16T23:09:35.052Z,23.33
2019-02-16T23:12:07.766Z,24.53
2019-02-16T23:14:41.386Z,23.87
2019-02-16T23:17:13.394Z,23.10
2019-02-16T23:19:46.192Z,23.97
2019-02-16T23:22:18.133Z,24.33
2019-02-16T23:24:50.066Z,22.97
2019-02-16T23:27:22.022Z,23.43
2019-02-16T23:29:54.476Z,22.73
2019-02-16T23:32:26.483Z,23.47
2019-02-16T23:34:58.421Z,22.77
2019-02-16T23:37:30.363Z,22.77
2019-02-16T23:40:02.299Z,24.30
2019-02-16T23:42:34.300Z,22.13
2019-02-16T23:45:10.025Z,25.33
2019-02-16T23:47:41.952Z,24.73
2019-02-16T23:50:13.910Z,24.33
2019-02-16T23:52:45.844Z,24.87
2019-02-16T23:55:17.790Z,25.33
2019-02-16T23:57:49.731Z,24.57
